createdAt,value
2018-06-17T00:02:22.351Z,2.50
2018-06-17T00:04:49.768Z,3.10
2018-06-17T00:07:17.208Z,2.70
2018-06-17T00:09:44.626Z,2.80
2018-06-17T00:12:12.008Z,3.00
2018-06-17T00:14:39.477Z,3.10
2018-06-17T00:17:07.053Z,3.30
2018-06-17T00:19:34.437Z,2.90
2018-06-17T00:22:01.884Z,2.77
2018-06-17T00:24:29.266Z,3.30
2018-06-17T00:26:56.677Z,3.20
2018-06-17T00:29:24.081Z,3.00
2018-06-17T00:31:51.540Z,3.20
2018-06-17T00:34:18.928Z,3.20
2018-06-17T00:36:47.060Z,3.10
2018-06-17T00:39:14.482Z,2.87
2018-06-17T00:41:41.872Z,3.37
2018-06-17T00:44:09.292Z,3.23
2018-06-17T00:46:36.678Z,2.60
2018-06-17T00:51:43.901Z,3.37
2018-06-17T00:54:11.289Z,3.10
2018-06-17T00:56:38.734Z,3.50
2018-06-17T00:59:06.367Z,3.57
2018-06-17T01:01:33.781Z,3.30
2018-06-17T01:04:01.168Z,3.50
2018-06-17T01:06:28.570Z,3.40
2018-06-17T01:08:55.952Z,3.57
2018-06-17T01:11:23.352Z,4.17
2018-06-17T01:13:50.781Z,3.40
2018-06-17T01:16:18.207Z,3.23
2018-06-17T01:18:45.594Z,3.70
2018-06-17T01:21:13.220Z,3.23
2018-06-17T01:23:40.619Z,3.40
2018-06-17T01:26:08.979Z,3.30
2018-06-17T01:28:37.964Z,3.33
2018-06-17T01:31:05.388Z,3.00
2018-06-17T01:33:33.210Z,3.50
2018-06-17T01:36:00.792Z,3.60
2018-06-17T01:38:28.228Z,3.30
2018-06-17T01:40:55.877Z,3.23
2018-06-17T01:43:23.332Z,3.00
2018-06-17T01:45:50.794Z,3.33
2018-06-17T01:48:18.227Z,3.50
2018-06-17T01:50:45.915Z,3.30
2018-06-17T01:53:13.271Z,3.27
2018-06-17T01:55:40.712Z,3.40
2018-06-17T01:58:08.122Z,3.57
2018-06-17T02:00:35.529Z,3.57
2018-06-17T02:03:07.512Z,3.63
2018-06-17T02:05:40.541Z,3.60
2018-06-17T02:08:13.757Z,3.60
2018-06-17T02:10:46.838Z,3.70
2018-06-17T02:13:14.262Z,3.70
2018-06-17T02:15:41.647Z,3.47
2018-06-17T02:18:09.049Z,3.40
2018-06-17T02:20:36.445Z,4.10
2018-06-17T02:23:03.855Z,3.93
2018-06-17T02:25:31.236Z,3.70
2018-06-17T02:27:58.633Z,3.60
2018-06-17T02:30:26.069Z,3.70
2018-06-17T02:32:53.454Z,3.47
2018-06-17T02:35:20.846Z,3.27
2018-06-17T02:37:48.262Z,3.10
2018-06-17T02:40:15.698Z,3.70
2018-06-17T02:42:43.140Z,3.97
2018-06-17T02:45:16.356Z,4.00
2018-06-17T02:47:49.442Z,4.20
2018-06-17T02:50:22.528Z,4.03
2018-06-17T02:52:55.600Z,4.00
2018-06-17T02:55:23.036Z,4.00
2018-06-17T02:57:50.437Z,3.93
2018-06-17T03:00:17.862Z,3.57
2018-06-17T03:02:45.268Z,3.37
2018-06-17T03:05:12.698Z,3.07
2018-06-17T03:07:40.110Z,3.20
2018-06-17T03:10:07.525Z,3.17
2018-06-17T03:12:34.910Z,3.30
2018-06-17T03:15:02.355Z,3.30
2018-06-17T03:17:29.834Z,2.80
2018-06-17T03:19:57.245Z,2.70
2018-06-17T03:22:24.640Z,2.53
2018-06-17T03:25:56.733Z,2.87
2018-06-17T03:28:29.849Z,2.77
2018-06-17T03:31:03.120Z,2.60
2018-06-17T03:33:36.257Z,2.77
2018-06-17T03:36:09.448Z,2.97
2018-06-17T03:38:38.297Z,2.80
2018-06-17T03:41:05.913Z,2.87
2018-06-17T03:43:33.336Z,2.80
2018-06-17T03:46:00.888Z,2.67
2018-06-17T03:48:28.473Z,2.90
2018-06-17T03:50:56.200Z,2.77
2018-06-17T03:53:23.581Z,2.53
2018-06-17T03:55:51.002Z,2.50
2018-06-17T03:58:18.410Z,2.90
2018-06-17T04:00:45.966Z,2.63
2018-06-17T04:03:13.390Z,2.40
2018-06-17T04:05:40.782Z,2.37
2018-06-17T04:08:08.197Z,2.33
2018-06-17T04:10:35.624Z,2.47
2018-06-17T04:13:03.056Z,2.47
2018-06-17T04:15:30.476Z,2.87
2018-06-17T04:17:57.890Z,2.90
2018-06-17T04:20:25.299Z,2.73
2018-06-17T04:22:52.708Z,2.50
2018-06-17T04:25:20.156Z,2.87
2018-06-17T04:27:47.660Z,2.60
2018-06-17T04:30:15.050Z,2.90
2018-06-17T04:32:42.457Z,2.57
2018-06-17T04:35:09.874Z,3.10
2018-06-17T04:37:37.252Z,3.43
2018-06-17T04:40:04.782Z,3.13
2018-06-17T04:42:32.168Z,3.30
2018-06-17T04:44:59.955Z,2.77
2018-06-17T04:47:27.382Z,2.80
2018-06-17T04:49:54.801Z,3.20
2018-06-17T04:52:22.221Z,3.03
2018-06-17T04:54:49.636Z,3.60
2018-06-17T04:57:17.062Z,3.10
2018-06-17T04:59:44.470Z,3.43
2018-06-17T05:02:11.864Z,3.30
2018-06-17T05:04:39.276Z,3.43
2018-06-17T05:07:06.718Z,3.00
2018-06-17T05:09:34.133Z,2.90
2018-06-17T05:12:01.762Z,2.90
2018-06-17T05:14:29.162Z,3.40
2018-06-17T05:16:56.600Z,3.37
2018-06-17T05:19:23.986Z,3.63
2018-06-17T05:21:51.386Z,3.77
2018-06-17T05:24:18.785Z,3.43
2018-06-17T05:26:46.201Z,3.30
2018-06-17T05:29:13.616Z,3.57
2018-06-17T05:31:41.028Z,3.17
2018-06-17T05:34:08.440Z,3.07
2018-06-17T05:36:35.914Z,3.13
2018-06-17T05:39:06.097Z,2.77
2018-06-17T05:41:33.542Z,2.60
2018-06-17T05:44:00.934Z,3.20
2018-06-17T05:46:28.349Z,3.20
2018-06-17T05:48:55.796Z,3.13
2018-06-17T05:51:23.170Z,3.13
2018-06-17T05:53:50.660Z,2.97
2018-06-17T05:56:18.161Z,2.97
2018-06-17T05:58:45.561Z,3.30
2018-06-17T06:01:13.040Z,2.70
2018-06-17T06:03:40.434Z,3.20
2018-06-17T06:06:07.867Z,3.33
2018-06-17T06:08:35.334Z,3.40
2018-06-17T06:11:02.761Z,3.70
2018-06-17T06:13:30.180Z,3.70
2018-06-17T06:15:57.681Z,3.90
2018-06-17T06:18:25.115Z,4.23
2018-06-17T06:20:52.529Z,4.40
2018-06-17T06:23:19.941Z,4.33
2018-06-17T06:25:47.364Z,3.80
2018-06-17T06:28:14.761Z,3.47
2018-06-17T06:30:42.215Z,3.77
2018-06-17T06:33:09.812Z,4.57
2018-06-17T06:35:37.196Z,4.30
2018-06-17T06:38:04.673Z,4.17
2018-06-17T06:40:32.080Z,4.43
2018-06-17T06:42:59.729Z,4.90
2018-06-17T06:45:27.152Z,5.50
2018-06-17T06:47:54.556Z,5.67
2018-06-17T06:50:22.009Z,6.13
2018-06-17T06:52:49.451Z,5.83
2018-06-17T06:55:16.841Z,6.73
2018-06-17T06:57:44.236Z,5.30
2018-06-17T07:00:12.377Z,6.10
2018-06-17T07:02:45.888Z,5.80
2018-06-17T07:05:24.957Z,5.50
2018-06-17T07:08:03.949Z,6.17
2018-06-17T07:10:31.356Z,6.30
2018-06-17T07:12:58.755Z,6.63
2018-06-17T07:15:38.854Z,6.37
2018-06-17T07:18:17.828Z,6.50
2018-06-17T07:20:45.404Z,6.57
2018-06-17T07:23:12.845Z,5.67
2018-06-17T07:26:50.944Z,6.47
2018-06-17T07:29:38.144Z,5.27
2018-06-17T07:32:05.545Z,5.07
2018-06-17T07:34:33.196Z,4.43
2018-06-17T07:37:00.643Z,4.73
2018-06-17T07:41:37.921Z,4.40
2018-06-17T07:44:05.548Z,5.17
2018-06-17T07:46:33.068Z,5.60
2018-06-17T07:49:39.752Z,5.10
2018-06-17T07:52:20.411Z,5.53
2018-06-17T07:54:47.973Z,5.40
2018-06-17T07:57:16.690Z,4.83
2018-06-17T07:59:44.101Z,5.13
2018-06-17T08:02:12.075Z,4.87
2018-06-17T08:04:39.478Z,4.73
2018-06-17T08:07:07.130Z,5.57
2018-06-17T08:09:34.601Z,5.60
2018-06-17T08:12:02.285Z,5.77
2018-06-17T08:14:29.689Z,5.67
2018-06-17T08:16:57.377Z,5.73
2018-06-17T08:19:26.787Z,5.57
2018-06-17T08:21:55.081Z,5.57
2018-06-17T08:24:22.656Z,6.03
2018-06-17T08:26:50.077Z,6.17
2018-06-17T08:29:17.483Z,5.93
2018-06-17T08:31:44.889Z,7.60
2018-06-17T08:34:12.309Z,6.67
2018-06-17T08:36:40.024Z,6.30
2018-06-17T08:39:10.061Z,8.10
2018-06-17T08:41:37.582Z,7.70
2018-06-17T08:44:05.014Z,7.20
2018-06-17T08:46:32.453Z,6.90
2018-06-17T08:48:59.908Z,7.63
2018-06-17T08:51:27.324Z,8.63
2018-06-17T08:53:55.440Z,9.43
2018-06-17T08:56:22.916Z,9.27
2018-06-17T08:58:50.448Z,10.17
2018-06-17T09:01:17.886Z,9.80
2018-06-17T09:03:45.522Z,11.30
2018-06-17T09:06:12.941Z,10.77
2018-06-17T09:08:40.372Z,9.20
2018-06-17T09:11:07.817Z,9.20
2018-06-17T09:13:35.205Z,9.07
2018-06-17T09:16:02.628Z,9.17
2018-06-17T09:18:30.021Z,9.33
2018-06-17T09:20:57.442Z,10.07
2018-06-17T09:23:24.830Z,10.73
2018-06-17T09:25:52.473Z,10.13
2018-06-17T09:28:19.857Z,9.63
2018-06-17T09:30:47.269Z,8.53
2018-06-17T09:33:14.695Z,7.93
2018-06-17T09:35:42.111Z,7.40
2018-06-17T09:38:09.505Z,7.07
2018-06-17T09:40:36.901Z,6.47
2018-06-17T09:43:04.494Z,6.47
2018-06-17T09:45:31.885Z,5.73
2018-06-17T09:47:59.403Z,7.03
2018-06-17T09:50:26.818Z,5.40
2018-06-17T09:52:54.204Z,4.63
2018-06-17T09:55:21.610Z,5.20
2018-06-17T09:57:49.024Z,5.43
2018-06-17T10:00:20.466Z,5.23
2018-06-17T10:02:48.865Z,5.33
2018-06-17T10:05:16.307Z,5.50
2018-06-17T10:07:43.706Z,6.20
2018-06-17T10:10:25.672Z,5.70
2018-06-17T10:12:53.214Z,6.07
2018-06-17T10:15:20.589Z,6.00
2018-06-17T10:17:48.034Z,5.63
2018-06-17T10:20:15.441Z,6.03
2018-06-17T10:22:42.825Z,6.57
2018-06-17T10:25:10.241Z,6.40
2018-06-17T10:27:37.645Z,6.17
2018-06-17T10:30:05.073Z,6.50
2018-06-17T10:32:32.458Z,6.33
2018-06-17T10:34:59.843Z,6.43
2018-06-17T10:37:27.216Z,6.10
2018-06-17T10:39:54.616Z,6.70
2018-06-17T10:42:22.109Z,6.70
2018-06-17T10:44:49.532Z,5.43
2018-06-17T10:47:17.281Z,5.83
2018-06-17T10:49:44.981Z,5.23
2018-06-17T10:52:12.386Z,5.93
2018-06-17T10:54:39.788Z,5.17
2018-06-17T10:57:07.544Z,5.80
2018-06-17T10:59:34.646Z,5.80
2018-06-17T11:02:02.113Z,5.77
2018-06-17T11:04:29.534Z,5.67
2018-06-17T11:06:56.966Z,6.03
2018-06-17T11:09:24.374Z,5.90
2018-06-17T11:11:51.794Z,5.87
2018-06-17T11:14:19.178Z,5.70
2018-06-17T11:16:46.588Z,5.40
2018-06-17T11:19:14.010Z,5.57
2018-06-17T11:21:41.403Z,5.87
2018-06-17T11:24:08.828Z,4.80
2018-06-17T11:26:36.285Z,4.97
2018-06-17T11:29:03.649Z,5.03
2018-06-17T11:31:31.105Z,4.90
2018-06-17T11:33:58.505Z,4.70
2018-06-17T11:36:25.878Z,4.63
2018-06-17T11:38:53.324Z,4.30
2018-06-17T11:41:20.691Z,4.50
2018-06-17T11:43:48.093Z,3.90
2018-06-17T11:46:15.516Z,4.20
2018-06-17T11:48:42.913Z,3.80
2018-06-17T11:51:10.317Z,4.27
2018-06-17T11:53:37.747Z,4.53
2018-06-17T11:56:05.158Z,3.77
2018-06-17T11:58:32.547Z,3.90
2018-06-17T12:00:59.976Z,4.03
2018-06-17T12:03:27.433Z,4.10
2018-06-17T12:05:54.962Z,4.07
2018-06-17T12:08:22.377Z,4.40
2018-06-17T12:10:49.786Z,3.80
2018-06-17T12:13:17.185Z,3.40
2018-06-17T12:15:44.597Z,3.70
2018-06-17T12:18:12.049Z,2.87
2018-06-17T12:20:39.474Z,4.47
2018-06-17T12:23:06.873Z,4.30
2018-06-17T12:25:34.265Z,4.23
2018-06-17T12:28:01.666Z,3.93
2018-06-17T12:30:29.083Z,4.23
2018-06-17T12:32:56.496Z,4.10
2018-06-17T12:35:23.908Z,4.63
2018-06-17T12:37:51.433Z,5.23
2018-06-17T12:40:18.872Z,4.60
2018-06-17T12:42:46.269Z,4.90
2018-06-17T12:45:13.696Z,4.97
2018-06-17T12:47:41.093Z,4.43
2018-06-17T12:50:08.488Z,4.87
2018-06-17T12:52:35.909Z,4.10
2018-06-17T12:55:03.377Z,4.43
2018-06-17T12:57:30.768Z,4.73
2018-06-17T12:59:58.177Z,4.10
2018-06-17T13:02:25.713Z,3.20
2018-06-17T13:04:53.241Z,3.33
2018-06-17T13:07:20.705Z,3.77
2018-06-17T13:09:48.133Z,3.43
2018-06-17T13:12:15.540Z,3.47
2018-06-17T13:14:42.941Z,3.33
2018-06-17T13:17:10.349Z,3.63
2018-06-17T13:19:37.804Z,3.53
2018-06-17T13:22:05.349Z,3.50
2018-06-17T13:24:32.765Z,2.93
2018-06-17T13:27:00.169Z,4.00
2018-06-17T13:29:27.573Z,3.23
2018-06-17T13:31:54.973Z,3.10
2018-06-17T13:34:22.373Z,3.70
2018-06-17T13:36:49.780Z,3.57
2018-06-17T13:39:17.177Z,3.30
2018-06-17T13:41:44.657Z,3.63
2018-06-17T13:44:12.079Z,3.70
2018-06-17T13:46:39.476Z,3.87
2018-06-17T13:49:06.890Z,3.60
2018-06-17T13:51:34.277Z,3.77
2018-06-17T13:54:01.718Z,3.80
2018-06-17T13:56:29.308Z,3.63
2018-06-17T13:58:56.691Z,3.33
2018-06-17T14:01:24.105Z,3.00
2018-06-17T14:03:51.549Z,4.00
2018-06-17T14:06:18.948Z,3.23
2018-06-17T14:08:46.424Z,4.20
2018-06-17T14:11:13.850Z,4.27
2018-06-17T14:13:41.276Z,4.60
2018-06-17T14:16:08.715Z,4.53
2018-06-17T14:18:36.138Z,4.60
2018-06-17T14:21:03.589Z,4.97
2018-06-17T14:23:30.994Z,5.50
2018-06-17T14:25:58.417Z,6.23
2018-06-17T14:28:25.812Z,6.17
2018-06-17T14:30:53.297Z,6.60
2018-06-17T14:33:20.709Z,7.53
2018-06-17T14:35:48.146Z,7.73
2018-06-17T14:38:15.698Z,7.40
2018-06-17T14:40:48.874Z,6.43
2018-06-17T14:43:22.054Z,7.10
2018-06-17T14:45:55.242Z,6.10
2018-06-17T14:48:28.528Z,4.53
2018-06-17T14:51:01.778Z,3.33
2018-06-17T14:53:29.184Z,2.80
2018-06-17T14:55:56.573Z,2.10
2018-06-17T14:58:23.980Z,2.30
2018-06-17T15:00:51.373Z,1.80
2018-06-17T15:03:18.789Z,2.10
2018-06-17T15:05:46.214Z,1.83
2018-06-17T15:08:13.625Z,1.40
2018-06-17T15:10:41.031Z,1.50
2018-06-17T15:13:08.501Z,1.30
2018-06-17T15:15:35.868Z,1.20
2018-06-17T15:18:03.288Z,1.70
2018-06-17T15:20:30.709Z,1.20
2018-06-17T15:22:58.145Z,1.40
2018-06-17T15:25:25.551Z,1.43
2018-06-17T15:27:52.964Z,1.00
2018-06-17T15:30:20.360Z,1.37
2018-06-17T15:32:53.595Z,0.87
2018-06-17T15:35:26.794Z,1.30
2018-06-17T15:37:59.972Z,1.20
2018-06-17T15:40:33.140Z,1.13
2018-06-17T15:43:00.587Z,1.10
2018-06-17T15:45:27.967Z,1.20
2018-06-17T15:47:55.424Z,1.17
2018-06-17T15:50:22.837Z,1.20
2018-06-17T15:52:50.240Z,1.00
2018-06-17T15:55:17.725Z,1.13
2018-06-17T15:57:45.155Z,1.20
2018-06-17T16:00:12.597Z,1.20
2018-06-17T16:02:40.009Z,1.20
2018-06-17T16:05:07.592Z,1.20
2018-06-17T16:07:35.017Z,1.00
2018-06-17T16:10:02.470Z,1.13
2018-06-17T16:13:37.305Z,1.50
2018-06-17T16:16:10.502Z,1.27
2018-06-17T16:18:43.806Z,1.37
2018-06-17T16:21:11.240Z,1.33
2018-06-17T16:23:38.632Z,1.87
2018-06-17T16:26:06.048Z,1.27
2018-06-17T16:28:33.434Z,1.40
2018-06-17T16:31:00.855Z,1.53
2018-06-17T16:33:28.277Z,1.40
2018-06-17T16:35:55.672Z,1.30
2018-06-17T16:38:23.249Z,1.63
2018-06-17T16:40:50.807Z,2.03
2018-06-17T16:43:18.382Z,1.40
2018-06-17T16:45:45.818Z,1.53
2018-06-17T16:48:13.399Z,1.50
2018-06-17T16:50:45.365Z,1.60
2018-06-17T16:53:18.604Z,1.70
2018-06-17T16:55:51.852Z,1.73
2018-06-17T16:58:25.067Z,1.60
2018-06-17T17:00:52.646Z,1.60
2018-06-17T17:03:20.065Z,1.70
2018-06-17T17:05:47.507Z,1.50
2018-06-17T17:08:14.896Z,1.40
2018-06-17T17:10:42.285Z,1.67
2018-06-17T17:13:09.700Z,1.60
2018-06-17T17:15:37.127Z,1.60
2018-06-17T17:18:04.859Z,1.60
2018-06-17T17:20:32.269Z,1.40
2018-06-17T17:22:59.661Z,1.30
2018-06-17T17:25:27.048Z,1.50
2018-06-17T17:27:54.433Z,1.40
2018-06-17T17:30:21.854Z,1.10
2018-06-17T17:32:54.972Z,1.23
2018-06-17T17:35:28.147Z,1.50
2018-06-17T17:38:01.339Z,1.33
2018-06-17T17:40:34.517Z,1.50
2018-06-17T17:43:01.909Z,1.30
2018-06-17T17:45:34.286Z,1.10
2018-06-17T17:48:01.789Z,1.53
2018-06-17T17:50:29.191Z,1.30
2018-06-17T17:52:56.602Z,1.30
2018-06-17T17:55:23.979Z,1.30
2018-06-17T17:57:51.378Z,1.13
2018-06-17T18:00:18.862Z,1.20
2018-06-17T18:02:46.261Z,1.30
2018-06-17T18:05:13.705Z,1.20
2018-06-17T18:07:41.117Z,1.30
2018-06-17T18:10:08.524Z,1.27
2018-06-17T18:12:35.914Z,1.20
2018-06-17T18:15:03.426Z,1.47
2018-06-17T18:17:30.835Z,1.40
2018-06-17T18:19:58.229Z,1.30
2018-06-17T18:22:25.656Z,1.43
2018-06-17T18:24:58.898Z,1.70
2018-06-17T18:27:32.045Z,1.40
2018-06-17T18:31:04.231Z,1.40
2018-06-17T18:33:37.380Z,1.50
2018-06-17T18:36:08.241Z,1.40
2018-06-17T18:38:36.272Z,1.43
2018-06-17T18:41:03.690Z,1.50
2018-06-17T18:43:31.130Z,1.60
2018-06-17T18:45:58.739Z,1.50
2018-06-17T18:48:26.121Z,1.60
2018-06-17T18:50:53.773Z,1.70
2018-06-17T18:53:23.300Z,1.50
2018-06-17T18:55:50.738Z,1.60
2018-06-17T18:58:18.403Z,1.50
2018-06-17T19:00:45.805Z,1.60
2018-06-17T19:03:13.235Z,1.63
2018-06-17T19:05:40.614Z,1.93
2018-06-17T19:08:12.604Z,1.67
2018-06-17T19:10:45.817Z,1.60
2018-06-17T19:13:18.958Z,1.60
2018-06-17T19:15:52.097Z,1.87
2018-06-17T19:18:19.517Z,1.50
2018-06-17T19:20:47.009Z,1.50
2018-06-17T19:23:14.393Z,1.40
2018-06-17T19:25:41.825Z,1.47
2018-06-17T19:28:09.223Z,1.30
2018-06-17T19:30:36.637Z,1.40
2018-06-17T19:33:04.076Z,1.30
2018-06-17T19:35:31.468Z,1.50
2018-06-17T19:37:58.931Z,1.50
2018-06-17T19:40:26.285Z,1.33
2018-06-17T19:42:53.775Z,1.70
2018-06-17T19:45:21.205Z,1.40
2018-06-17T19:47:48.716Z,1.20
2018-06-17T19:50:21.737Z,1.60
2018-06-17T19:52:54.948Z,1.50
2018-06-17T19:55:28.156Z,1.40
2018-06-17T19:58:01.312Z,1.40
2018-06-17T20:00:31.191Z,1.83
2018-06-17T20:02:58.608Z,1.50
2018-06-17T20:05:26.025Z,1.53
2018-06-17T20:07:53.459Z,1.37
2018-06-17T20:10:20.865Z,1.50
2018-06-17T20:12:48.286Z,1.43
2018-06-17T20:15:15.777Z,1.60
2018-06-17T20:17:43.864Z,1.80
2018-06-17T20:20:11.274Z,1.20
2018-06-17T20:22:38.742Z,1.60
2018-06-17T20:25:06.170Z,1.47
2018-06-17T20:27:33.580Z,1.30
2018-06-17T20:30:01.178Z,1.60
2018-06-17T20:32:34.252Z,1.73
2018-06-17T20:35:07.244Z,1.87
2018-06-17T20:37:40.323Z,1.50
2018-06-17T20:40:13.336Z,1.50
2018-06-17T20:42:46.399Z,1.50
2018-06-17T20:45:14.275Z,1.70
2018-06-17T20:47:41.757Z,1.40
2018-06-17T20:50:09.206Z,1.70
2018-06-17T20:52:36.596Z,1.50
2018-06-17T20:55:04.033Z,1.63
2018-06-17T20:57:31.470Z,1.40
2018-06-17T20:59:58.864Z,1.57
2018-06-17T21:02:26.264Z,1.80
2018-06-17T21:04:53.904Z,1.60
2018-06-17T21:07:21.333Z,1.37
2018-06-17T21:09:48.787Z,2.10
2018-06-17T21:12:16.167Z,1.53
2018-06-17T21:14:43.605Z,1.67
2018-06-17T21:17:10.996Z,1.60
2018-06-17T21:19:44.059Z,1.60
2018-06-17T21:22:17.164Z,1.50
2018-06-17T21:25:54.009Z,1.80
2018-06-17T21:28:21.415Z,1.80
2018-06-17T21:30:48.853Z,1.70
2018-06-17T21:33:16.262Z,2.13
2018-06-17T21:35:43.640Z,1.97
2018-06-17T21:38:11.057Z,1.93
2018-06-17T21:40:38.496Z,1.50
2018-06-17T21:43:05.909Z,1.90
2018-06-17T21:45:33.329Z,1.80
2018-06-17T21:48:00.733Z,1.90
2018-06-17T21:50:28.141Z,1.93
2018-06-17T21:52:55.566Z,2.00
2018-06-17T21:55:22.978Z,1.90
2018-06-17T21:57:50.413Z,1.70
2018-06-17T22:00:17.786Z,1.87
2018-06-17T22:02:45.165Z,1.93
2018-06-17T22:05:13.081Z,1.80
2018-06-17T22:07:46.306Z,2.13
2018-06-17T22:10:19.437Z,1.63
2018-06-17T22:12:52.542Z,1.90
2018-06-17T22:15:25.678Z,1.83
2018-06-17T22:17:54.146Z,1.93
2018-06-17T22:20:21.701Z,1.90
2018-06-17T22:22:49.118Z,1.90
2018-06-17T22:25:16.932Z,1.70
2018-06-17T22:27:44.348Z,1.60
2018-06-17T22:30:11.803Z,1.50
2018-06-17T22:32:39.188Z,1.97
2018-06-17T22:35:06.625Z,1.83
2018-06-17T22:37:34.048Z,1.83
2018-06-17T22:40:01.506Z,1.80
2018-06-17T22:42:28.916Z,1.77
2018-06-17T22:44:56.319Z,1.47
2018-06-17T22:47:29.603Z,1.90
2018-06-17T22:49:57.065Z,1.80
2018-06-17T22:52:24.497Z,1.80
2018-06-17T22:54:53.249Z,1.70
2018-06-17T22:57:26.594Z,1.73
2018-06-17T23:01:02.638Z,1.60
2018-06-17T23:03:35.875Z,1.90
2018-06-17T23:06:08.954Z,1.70
2018-06-17T23:08:42.139Z,1.73
2018-06-17T23:11:09.588Z,2.00
2018-06-17T23:13:37.004Z,2.03
2018-06-17T23:16:04.453Z,1.90
2018-06-17T23:18:31.858Z,2.07
2018-06-17T23:20:59.269Z,2.17
2018-06-17T23:23:26.672Z,2.20
2018-06-17T23:25:54.037Z,2.10
2018-06-17T23:28:21.413Z,2.17
2018-06-17T23:30:48.853Z,2.07
2018-06-17T23:33:16.245Z,2.10
2018-06-17T23:35:43.656Z,2.27
2018-06-17T23:38:11.094Z,2.30
2018-06-17T23:40:38.509Z,2.50
2018-06-17T23:43:05.896Z,2.30
2018-06-17T23:45:33.320Z,2.20
2018-06-17T23:48:06.397Z,2.20
2018-06-17T23:50:39.609Z,2.60
2018-06-17T23:53:12.821Z,2.70
2018-06-17T23:56:11.498Z,2.60
2018-06-17T23:58:39.340Z,2.27
